sensor_id;sensor_type;location;lat;lon;timestamp;P1;durP1;ratioP1;P2;durP2;ratioP2
43919;SDS011;29578;51.946;5.874;2023-04-06T00:00:45;1.30;;;0.80;;
43919;SDS011;29578;51.946;5.874;2023-04-06T00:03:12;0.77;;;0.70;;
43919;SDS011;29578;51.946;5.874;2023-04-06T00:05:38;1.48;;;0.73;;
43919;SDS011;29578;51.946;5.874;2023-04-06T00:08:04;1.02;;;0.73;;
43919;SDS011;29578;51.946;5.874;2023-04-06T00:10:30;1.23;;;0.90;;
43919;SDS011;29578;51.946;5.874;2023-04-06T00:12:55;1.20;;;0.90;;
43919;SDS011;29578;51.946;5.874;2023-04-06T00:15:22;0.85;;;0.70;;
43919;SDS011;29578;51.946;5.874;2023-04-06T00:17:48;0.70;;;0.60;;
43919;SDS011;29578;51.946;5.874;2023-04-06T00:20:13;1.27;;;0.88;;
43919;SDS011;29578;51.946;5.874;2023-04-06T00:22:40;1.10;;;0.70;;
43919;SDS011;29578;51.946;5.874;2023-04-06T00:25:06;1.15;;;0.70;;
43919;SDS011;29578;51.946;5.874;2023-04-06T00:27:32;1.13;;;0.70;;
43919;SDS011;29578;51.946;5.874;2023-04-06T00:29:57;1.45;;;0.80;;
43919;SDS011;29578;51.946;5.874;2023-04-06T00:32:23;0.60;;;0.60;;
43919;SDS011;29578;51.946;5.874;2023-04-06T00:34:48;1.25;;;0.85;;
43919;SDS011;29578;51.946;5.874;2023-04-06T00:37:14;1.02;;;0.80;;
43919;SDS011;29578;51.946;5.874;2023-04-06T00:39:40;0.90;;;0.60;;
43919;SDS011;29578;51.946;5.874;2023-04-06T00:42:09;1.08;;;0.63;;
43919;SDS011;29578;51.946;5.874;2023-04-06T00:44:38;0.73;;;0.70;;
43919;SDS011;29578;51.946;5.874;2023-04-06T00:47:05;0.65;;;0.50;;
43919;SDS011;29578;51.946;5.874;2023-04-06T00:49:32;0.75;;;0.55;;
43919;SDS011;29578;51.946;5.874;2023-04-06T00:51:58;0.70;;;0.50;;
43919;SDS011;29578;51.946;5.874;2023-04-06T00:54:23;1.10;;;0.55;;
43919;SDS011;29578;51.946;5.874;2023-04-06T00:56:49;1.10;;;0.57;;
43919;SDS011;29578;51.946;5.874;2023-04-06T00:59:15;1.13;;;0.80;;
43919;SDS011;29578;51.946;5.874;2023-04-06T01:01:41;1.02;;;0.70;;
43919;SDS011;29578;51.946;5.874;2023-04-06T01:04:06;1.00;;;0.60;;
43919;SDS011;29578;51.946;5.874;2023-04-06T01:06:32;0.50;;;0.50;;
43919;SDS011;29578;51.946;5.874;2023-04-06T01:08:58;0.65;;;0.60;;
43919;SDS011;29578;51.946;5.874;2023-04-06T01:11:23;1.48;;;0.80;;
43919;SDS011;29578;51.946;5.874;2023-04-06T01:13:49;0.60;;;0.47;;
43919;SDS011;29578;51.946;5.874;2023-04-06T01:16:15;1.13;;;0.60;;
43919;SDS011;29578;51.946;5.874;2023-04-06T01:18:41;0.70;;;0.70;;
43919;SDS011;29578;51.946;5.874;2023-04-06T01:21:07;0.90;;;0.70;;
43919;SDS011;29578;51.946;5.874;2023-04-06T01:23:34;1.00;;;0.73;;
43919;SDS011;29578;51.946;5.874;2023-04-06T01:26:00;0.90;;;0.60;;
43919;SDS011;29578;51.946;5.874;2023-04-06T01:28:25;0.60;;;0.50;;
43919;SDS011;29578;51.946;5.874;2023-04-06T01:30:51;1.02;;;0.60;;
43919;SDS011;29578;51.946;5.874;2023-04-06T01:33:17;1.95;;;0.90;;
43919;SDS011;29578;51.946;5.874;2023-04-06T01:35:42;0.98;;;0.70;;
43919;SDS011;29578;51.946;5.874;2023-04-06T01:38:08;0.80;;;0.63;;
43919;SDS011;29578;51.946;5.874;2023-04-06T01:40:33;1.40;;;0.70;;
43919;SDS011;29578;51.946;5.874;2023-04-06T01:42:59;0.88;;;0.68;;
43919;SDS011;29578;51.946;5.874;2023-04-06T01:45:25;1.05;;;0.80;;
43919;SDS011;29578;51.946;5.874;2023-04-06T01:47:51;0.60;;;0.60;;
43919;SDS011;29578;51.946;5.874;2023-04-06T01:50:16;0.73;;;0.70;;
43919;SDS011;29578;51.946;5.874;2023-04-06T01:52:42;0.60;;;0.50;;
43919;SDS011;29578;51.946;5.874;2023-04-06T01:55:07;0.70;;;0.68;;
43919;SDS011;29578;51.946;5.874;2023-04-06T01:57:33;0.75;;;0.68;;
43919;SDS011;29578;51.946;5.874;2023-04-06T01:59:59;0.63;;;0.50;;
43919;SDS011;29578;51.946;5.874;2023-04-06T02:02:25;0.68;;;0.63;;
43919;SDS011;29578;51.946;5.874;2023-04-06T02:04:51;1.10;;;0.70;;
43919;SDS011;29578;51.946;5.874;2023-04-06T02:07:16;1.13;;;0.70;;
43919;SDS011;29578;51.946;5.874;2023-04-06T02:09:42;0.40;;;0.40;;
43919;SDS011;29578;51.946;5.874;2023-04-06T02:12:07;0.73;;;0.50;;
43919;SDS011;29578;51.946;5.874;2023-04-06T02:14:33;0.40;;;0.40;;
43919;SDS011;29578;51.946;5.874;2023-04-06T02:16:59;0.88;;;0.63;;
43919;SDS011;29578;51.946;5.874;2023-04-06T02:19:24;0.60;;;0.50;;
43919;SDS011;29578;51.946;5.874;2023-04-06T02:21:51;0.98;;;0.60;;
43919;SDS011;29578;51.946;5.874;2023-04-06T02:24:16;0.70;;;0.57;;
43919;SDS011;29578;51.946;5.874;2023-04-06T02:26:42;0.90;;;0.50;;
43919;SDS011;29578;51.946;5.874;2023-04-06T02:29:07;0.65;;;0.57;;
43919;SDS011;29578;51.946;5.874;2023-04-06T02:31:33;1.50;;;0.80;;
43919;SDS011;29578;51.946;5.874;2023-04-06T02:33:58;0.55;;;0.40;;
43919;SDS011;29578;51.946;5.874;2023-04-06T02:36:24;0.85;;;0.60;;
43919;SDS011;29578;51.946;5.874;2023-04-06T02:38:51;0.75;;;0.60;;
43919;SDS011;29578;51.946;5.874;2023-04-06T02:41:16;0.70;;;0.68;;
43919;SDS011;29578;51.946;5.874;2023-04-06T02:43:42;0.85;;;0.63;;
43919;SDS011;29578;51.946;5.874;2023-04-06T02:46:07;1.20;;;0.70;;
43919;SDS011;29578;51.946;5.874;2023-04-06T02:48:33;0.52;;;0.50;;
43919;SDS011;29578;51.946;5.874;2023-04-06T02:51:01;0.95;;;0.60;;
43919;SDS011;29578;51.946;5.874;2023-04-06T02:53:26;0.73;;;0.57;;
43919;SDS011;29578;51.946;5.874;2023-04-06T02:55:52;0.50;;;0.50;;
43919;SDS011;29578;51.946;5.874;2023-04-06T02:58:18;1.05;;;0.70;;
43919;SDS011;29578;51.946;5.874;2023-04-06T03:00:44;0.82;;;0.63;;
43919;SDS011;29578;51.946;5.874;2023-04-06T03:03:10;0.77;;;0.60;;
43919;SDS011;29578;51.946;5.874;2023-04-06T03:05:35;1.10;;;0.80;;
43919;SDS011;29578;51.946;5.874;2023-04-06T03:08:01;1.25;;;0.75;;
43919;SDS011;29578;51.946;5.874;2023-04-06T03:10:27;0.68;;;0.60;;
43919;SDS011;29578;51.946;5.874;2023-04-06T03:12:52;1.10;;;0.73;;
43919;SDS011;29578;51.946;5.874;2023-04-06T03:15:18;0.90;;;0.52;;
43919;SDS011;29578;51.946;5.874;2023-04-06T03:17:43;1.10;;;0.73;;
43919;SDS011;29578;51.946;5.874;2023-04-06T03:20:09;1.02;;;0.60;;
43919;SDS011;29578;51.946;5.874;2023-04-06T03:22:35;0.98;;;0.70;;
43919;SDS011;29578;51.946;5.874;2023-04-06T03:25:01;0.60;;;0.50;;
43919;SDS011;29578;51.946;5.874;2023-04-06T03:27:26;1.55;;;0.80;;
43919;SDS011;29578;51.946;5.874;2023-04-06T03:29:52;0.52;;;0.52;;
43919;SDS011;29578;51.946;5.874;2023-04-06T03:32:17;1.02;;;0.52;;
43919;SDS011;29578;51.946;5.874;2023-04-06T03:34:43;0.85;;;0.50;;
43919;SDS011;29578;51.946;5.874;2023-04-06T03:37:08;0.95;;;0.60;;
43919;SDS011;29578;51.946;5.874;2023-04-06T03:39:34;2.50;;;0.80;;
43919;SDS011;29578;51.946;5.874;2023-04-06T03:42:00;1.08;;;0.60;;
43919;SDS011;29578;51.946;5.874;2023-04-06T03:44:25;0.70;;;0.60;;
43919;SDS011;29578;51.946;5.874;2023-04-06T03:46:51;0.85;;;0.60;;
43919;SDS011;29578;51.946;5.874;2023-04-06T03:49:16;0.55;;;0.50;;
43919;SDS011;29578;51.946;5.874;2023-04-06T03:51:42;0.85;;;0.47;;
43919;SDS011;29578;51.946;5.874;2023-04-06T03:54:08;0.45;;;0.45;;
43919;SDS011;29578;51.946;5.874;2023-04-06T03:56:33;1.30;;;0.80;;
43919;SDS011;29578;51.946;5.874;2023-04-06T03:58:59;0.50;;;0.50;;
43919;SDS011;29578;51.946;5.874;2023-04-06T04:01:25;1.45;;;0.73;;
43919;SDS011;29578;51.946;5.874;2023-04-06T04:03:50;1.48;;;0.70;;
43919;SDS011;29578;51.946;5.874;2023-04-06T04:06:17;0.93;;;0.63;;
43919;SDS011;29578;51.946;5.874;2023-04-06T04:08:42;1.17;;;0.70;;
43919;SDS011;29578;51.946;5.874;2023-04-06T04:11:08;0.75;;;0.60;;
43919;SDS011;29578;51.946;5.874;2023-04-06T04:13:33;1.77;;;0.85;;
43919;SDS011;29578;51.946;5.874;2023-04-06T04:15:59;1.40;;;0.80;;
43919;SDS011;29578;51.946;5.874;2023-04-06T04:18:25;1.48;;;0.85;;
43919;SDS011;29578;51.946;5.874;2023-04-06T04:20:50;1.52;;;0.98;;
43919;SDS011;29578;51.946;5.874;2023-04-06T04:23:16;1.13;;;0.70;;
43919;SDS011;29578;51.946;5.874;2023-04-06T04:25:43;2.42;;;0.93;;
43919;SDS011;29578;51.946;5.874;2023-04-06T04:28:08;0.77;;;0.70;;
43919;SDS011;29578;51.946;5.874;2023-04-06T04:30:34;0.73;;;0.68;;
43919;SDS011;29578;51.946;5.874;2023-04-06T04:33:00;0.95;;;0.68;;
43919;SDS011;29578;51.946;5.874;2023-04-06T04:35:26;0.80;;;0.80;;
43919;SDS011;29578;51.946;5.874;2023-04-06T04:37:52;1.60;;;0.70;;
43919;SDS011;29578;51.946;5.874;2023-04-06T04:40:17;1.17;;;0.70;;
43919;SDS011;29578;51.946;5.874;2023-04-06T04:42:43;1.25;;;0.80;;
43919;SDS011;29578;51.946;5.874;2023-04-06T04:45:09;1.15;;;0.77;;
43919;SDS011;29578;51.946;5.874;2023-04-06T04:47:35;1.15;;;0.90;;
43919;SDS011;29578;51.946;5.874;2023-04-06T04:50:02;1.63;;;1.00;;
43919;SDS011;29578;51.946;5.874;2023-04-06T04:52:28;1.30;;;0.70;;
43919;SDS011;29578;51.946;5.874;2023-04-06T04:54:54;2.20;;;0.80;;
43919;SDS011;29578;51.946;5.874;2023-04-06T04:57:21;0.85;;;0.75;;
43919;SDS011;29578;51.946;5.874;2023-04-06T04:59:47;1.10;;;0.65;;
43919;SDS011;29578;51.946;5.874;2023-04-06T05:02:14;1.55;;;0.80;;
43919;SDS011;29578;51.946;5.874;2023-04-06T05:04:39;1.50;;;0.90;;
43919;SDS011;29578;51.946;5.874;2023-04-06T05:07:06;0.93;;;0.70;;
43919;SDS011;29578;51.946;5.874;2023-04-06T05:09:33;0.80;;;0.70;;
43919;SDS011;29578;51.946;5.874;2023-04-06T05:11:59;1.88;;;0.90;;
43919;SDS011;29578;51.946;5.874;2023-04-06T05:14:25;0.85;;;0.50;;
43919;SDS011;29578;51.946;5.874;2023-04-06T05:16:51;0.70;;;0.50;;
43919;SDS011;29578;51.946;5.874;2023-04-06T05:19:17;1.60;;;0.90;;
43919;SDS011;29578;51.946;5.874;2023-04-06T05:21:42;1.23;;;0.80;;
43919;SDS011;29578;51.946;5.874;2023-04-06T05:24:08;1.52;;;1.00;;
43919;SDS011;29578;51.946;5.874;2023-04-06T05:26:34;1.02;;;0.70;;
43919;SDS011;29578;51.946;5.874;2023-04-06T05:29:00;1.55;;;0.70;;
43919;SDS011;29578;51.946;5.874;2023-04-06T05:31:26;1.70;;;0.82;;
43919;SDS011;29578;51.946;5.874;2023-04-06T05:33:51;1.70;;;0.90;;
43919;SDS011;29578;51.946;5.874;2023-04-06T05:36:17;1.13;;;0.65;;
43919;SDS011;29578;51.946;5.874;2023-04-06T05:38:43;1.52;;;0.85;;
43919;SDS011;29578;51.946;5.874;2023-04-06T05:41:08;1.17;;;0.60;;
43919;SDS011;29578;51.946;5.874;2023-04-06T05:43:34;1.45;;;0.70;;
43919;SDS011;29578;51.946;5.874;2023-04-06T05:46:00;1.00;;;0.68;;
43919;SDS011;29578;51.946;5.874;2023-04-06T05:48:25;0.95;;;0.65;;
43919;SDS011;29578;51.946;5.874;2023-04-06T05:50:51;1.48;;;0.90;;
43919;SDS011;29578;51.946;5.874;2023-04-06T05:53:17;1.90;;;0.77;;
43919;SDS011;29578;51.946;5.874;2023-04-06T05:55:42;0.90;;;0.73;;
43919;SDS011;29578;51.946;5.874;2023-04-06T05:58:08;1.52;;;0.90;;
43919;SDS011;29578;51.946;5.874;2023-04-06T06:00:34;0.68;;;0.63;;
43919;SDS011;29578;51.946;5.874;2023-04-06T06:03:00;0.93;;;0.70;;
43919;SDS011;29578;51.946;5.874;2023-04-06T06:05:29;1.80;;;1.02;;
43919;SDS011;29578;51.946;5.874;2023-04-06T06:07:55;1.52;;;0.90;;
43919;SDS011;29578;51.946;5.874;2023-04-06T06:10:20;1.40;;;0.93;;
43919;SDS011;29578;51.946;5.874;2023-04-06T06:12:46;2.03;;;0.93;;
43919;SDS011;29578;51.946;5.874;2023-04-06T06:15:12;1.13;;;0.80;;
43919;SDS011;29578;51.946;5.874;2023-04-06T06:17:37;2.78;;;1.10;;
43919;SDS011;29578;51.946;5.874;2023-04-06T06:20:04;3.05;;;1.38;;
43919;SDS011;29578;51.946;5.874;2023-04-06T06:22:31;3.13;;;1.45;;
43919;SDS011;29578;51.946;5.874;2023-04-06T06:24:57;1.98;;;1.13;;
43919;SDS011;29578;51.946;5.874;2023-04-06T06:27:22;1.67;;;0.95;;
43919;SDS011;29578;51.946;5.874;2023-04-06T06:29:48;1.20;;;0.90;;
43919;SDS011;29578;51.946;5.874;2023-04-06T06:32:14;1.48;;;1.00;;
43919;SDS011;29578;51.946;5.874;2023-04-06T06:34:39;1.73;;;1.10;;
43919;SDS011;29578;51.946;5.874;2023-04-06T06:37:05;1.48;;;1.05;;
43919;SDS011;29578;51.946;5.874;2023-04-06T06:39:31;1.80;;;1.10;;
43919;SDS011;29578;51.946;5.874;2023-04-06T06:41:57;1.98;;;1.30;;
43919;SDS011;29578;51.946;5.874;2023-04-06T06:44:25;1.65;;;1.13;;
43919;SDS011;29578;51.946;5.874;2023-04-06T06:46:51;2.20;;;1.20;;
43919;SDS011;29578;51.946;5.874;2023-04-06T06:49:17;1.48;;;0.90;;
43919;SDS011;29578;51.946;5.874;2023-04-06T06:51:43;2.03;;;1.10;;
43919;SDS011;29578;51.946;5.874;2023-04-06T06:54:09;3.15;;;1.25;;
43919;SDS011;29578;51.946;5.874;2023-04-06T06:56:35;1.50;;;0.95;;
43919;SDS011;29578;51.946;5.874;2023-04-06T06:59:03;2.45;;;1.10;;
43919;SDS011;29578;51.946;5.874;2023-04-06T07:01:29;1.85;;;1.27;;
43919;SDS011;29578;51.946;5.874;2023-04-06T07:03:54;2.22;;;1.30;;
43919;SDS011;29578;51.946;5.874;2023-04-06T07:06:20;2.35;;;1.30;;
43919;SDS011;29578;51.946;5.874;2023-04-06T07:08:46;2.13;;;1.30;;
43919;SDS011;29578;51.946;5.874;2023-04-06T07:11:11;1.10;;;0.90;;
43919;SDS011;29578;51.946;5.874;2023-04-06T07:13:37;1.10;;;0.90;;
43919;SDS011;29578;51.946;5.874;2023-04-06T07:16:03;1.10;;;0.80;;
43919;SDS011;29578;51.946;5.874;2023-04-06T07:18:28;2.33;;;1.40;;
43919;SDS011;29578;51.946;5.874;2023-04-06T07:20:54;2.28;;;1.27;;
43919;SDS011;29578;51.946;5.874;2023-04-06T07:23:20;1.88;;;1.10;;
43919;SDS011;29578;51.946;5.874;2023-04-06T07:25:45;1.88;;;1.17;;
43919;SDS011;29578;51.946;5.874;2023-04-06T07:28:11;2.17;;;1.15;;
43919;SDS011;29578;51.946;5.874;2023-04-06T07:30:37;2.63;;;1.30;;
43919;SDS011;29578;51.946;5.874;2023-04-06T07:33:04;3.05;;;1.35;;
43919;SDS011;29578;51.946;5.874;2023-04-06T07:35:30;2.17;;;1.30;;
43919;SDS011;29578;51.946;5.874;2023-04-06T07:37:56;2.42;;;1.38;;
43919;SDS011;29578;51.946;5.874;2023-04-06T07:40:22;1.70;;;1.02;;
43919;SDS011;29578;51.946;5.874;2023-04-06T07:42:48;2.15;;;1.27;;
43919;SDS011;29578;51.946;5.874;2023-04-06T07:45:14;1.48;;;1.17;;
43919;SDS011;29578;51.946;5.874;2023-04-06T07:47:40;1.92;;;1.20;;
43919;SDS011;29578;51.946;5.874;2023-04-06T07:50:06;1.92;;;1.00;;
43919;SDS011;29578;51.946;5.874;2023-04-06T07:52:32;1.70;;;1.17;;
43919;SDS011;29578;51.946;5.874;2023-04-06T07:54:58;2.20;;;1.20;;
43919;SDS011;29578;51.946;5.874;2023-04-06T07:57:24;1.92;;;1.17;;
43919;SDS011;29578;51.946;5.874;2023-04-06T07:59:50;1.40;;;1.00;;
43919;SDS011;29578;51.946;5.874;2023-04-06T08:02:16;2.17;;;1.20;;
43919;SDS011;29578;51.946;5.874;2023-04-06T08:04:42;2.17;;;1.08;;
43919;SDS011;29578;51.946;5.874;2023-04-06T08:07:08;1.38;;;1.10;;
43919;SDS011;29578;51.946;5.874;2023-04-06T08:09:33;2.35;;;1.17;;
43919;SDS011;29578;51.946;5.874;2023-04-06T08:11:59;2.45;;;0.90;;
43919;SDS011;29578;51.946;5.874;2023-04-06T08:14:26;1.30;;;0.93;;
43919;SDS011;29578;51.946;5.874;2023-04-06T08:16:52;1.67;;;1.15;;
43919;SDS011;29578;51.946;5.874;2023-04-06T08:19:17;3.00;;;1.50;;
43919;SDS011;29578;51.946;5.874;2023-04-06T08:21:44;2.63;;;1.40;;
43919;SDS011;29578;51.946;5.874;2023-04-06T08:24:11;1.63;;;1.00;;
43919;SDS011;29578;51.946;5.874;2023-04-06T08:26:37;1.67;;;1.10;;
43919;SDS011;29578;51.946;5.874;2023-04-06T08:29:02;2.47;;;1.20;;
43919;SDS011;29578;51.946;5.874;2023-04-06T08:31:29;2.45;;;1.38;;
43919;SDS011;29578;51.946;5.874;2023-04-06T08:33:55;1.48;;;1.08;;
43919;SDS011;29578;51.946;5.874;2023-04-06T08:36:21;2.58;;;1.30;;
43919;SDS011;29578;51.946;5.874;2023-04-06T08:38:48;1.80;;;1.15;;
43919;SDS011;29578;51.946;5.874;2023-04-06T08:41:15;3.10;;;1.45;;
43919;SDS011;29578;51.946;5.874;2023-04-06T08:43:44;2.15;;;1.25;;
43919;SDS011;29578;51.946;5.874;2023-04-06T08:46:12;1.80;;;1.17;;
43919;SDS011;29578;51.946;5.874;2023-04-06T08:48:39;1.80;;;1.10;;
43919;SDS011;29578;51.946;5.874;2023-04-06T08:51:06;3.22;;;1.30;;
43919;SDS011;29578;51.946;5.874;2023-04-06T08:53:33;1.80;;;1.17;;
43919;SDS011;29578;51.946;5.874;2023-04-06T08:55:58;2.50;;;1.40;;
43919;SDS011;29578;51.946;5.874;2023-04-06T08:58:25;1.48;;;1.10;;
43919;SDS011;29578;51.946;5.874;2023-04-06T09:00:55;2.47;;;1.33;;
43919;SDS011;29578;51.946;5.874;2023-04-06T09:03:21;2.10;;;1.20;;
43919;SDS011;29578;51.946;5.874;2023-04-06T09:05:48;1.60;;;1.02;;
43919;SDS011;29578;51.946;5.874;2023-04-06T09:08:14;1.88;;;1.27;;
43919;SDS011;29578;51.946;5.874;2023-04-06T09:10:40;1.77;;;1.20;;
43919;SDS011;29578;51.946;5.874;2023-04-06T09:13:07;2.38;;;1.40;;
43919;SDS011;29578;51.946;5.874;2023-04-06T09:15:33;2.42;;;1.58;;
43919;SDS011;29578;51.946;5.874;2023-04-06T09:18:00;3.40;;;1.90;;
43919;SDS011;29578;51.946;5.874;2023-04-06T09:20:26;3.35;;;1.98;;
43919;SDS011;29578;51.946;5.874;2023-04-06T09:22:53;3.30;;;1.88;;
43919;SDS011;29578;51.946;5.874;2023-04-06T09:25:20;3.42;;;2.15;;
43919;SDS011;29578;51.946;5.874;2023-04-06T09:27:48;3.83;;;1.98;;
43919;SDS011;29578;51.946;5.874;2023-04-06T09:30:23;3.40;;;2.00;;
43919;SDS011;29578;51.946;5.874;2023-04-06T09:32:51;3.72;;;2.08;;
43919;SDS011;29578;51.946;5.874;2023-04-06T09:35:19;3.95;;;2.40;;
43919;SDS011;29578;51.946;5.874;2023-04-06T09:37:46;4.10;;;2.25;;
43919;SDS011;29578;51.946;5.874;2023-04-06T09:40:13;4.50;;;2.35;;
43919;SDS011;29578;51.946;5.874;2023-04-06T09:42:41;4.60;;;2.35;;
43919;SDS011;29578;51.946;5.874;2023-04-06T09:45:07;4.00;;;2.22;;
43919;SDS011;29578;51.946;5.874;2023-04-06T09:47:33;4.47;;;2.58;;
43919;SDS011;29578;51.946;5.874;2023-04-06T09:50:01;4.47;;;2.40;;
43919;SDS011;29578;51.946;5.874;2023-04-06T09:52:31;4.40;;;2.22;;
43919;SDS011;29578;51.946;5.874;2023-04-06T09:55:01;4.32;;;2.60;;
43919;SDS011;29578;51.946;5.874;2023-04-06T09:57:29;3.63;;;2.17;;
43919;SDS011;29578;51.946;5.874;2023-04-06T10:00:02;3.90;;;2.00;;
43919;SDS011;29578;51.946;5.874;2023-04-06T10:05:33;5.07;;;2.70;;
43919;SDS011;29578;51.946;5.874;2023-04-06T10:08:19;4.07;;;2.22;;
43919;SDS011;29578;51.946;5.874;2023-04-06T10:10:49;4.97;;;2.88;;
43919;SDS011;29578;51.946;5.874;2023-04-06T10:13:16;5.78;;;3.22;;
43919;SDS011;29578;51.946;5.874;2023-04-06T10:15:43;5.03;;;3.10;;
43919;SDS011;29578;51.946;5.874;2023-04-06T10:18:09;5.25;;;2.90;;
43919;SDS011;29578;51.946;5.874;2023-04-06T10:20:39;4.88;;;3.00;;
43919;SDS011;29578;51.946;5.874;2023-04-06T10:23:24;4.50;;;2.53;;
43919;SDS011;29578;51.946;5.874;2023-04-06T10:26:01;4.75;;;2.63;;
43919;SDS011;29578;51.946;5.874;2023-04-06T10:28:35;5.15;;;3.13;;
43919;SDS011;29578;51.946;5.874;2023-04-06T10:31:01;5.65;;;3.13;;
43919;SDS011;29578;51.946;5.874;2023-04-06T10:33:30;4.05;;;2.55;;
43919;SDS011;29578;51.946;5.874;2023-04-06T10:35:56;5.03;;;2.63;;
43919;SDS011;29578;51.946;5.874;2023-04-06T10:38:32;5.28;;;2.40;;
43919;SDS011;29578;51.946;5.874;2023-04-06T10:41:07;5.07;;;2.42;;
43919;SDS011;29578;51.946;5.874;2023-04-06T10:43:35;4.70;;;2.70;;
43919;SDS011;29578;51.946;5.874;2023-04-06T10:46:02;4.93;;;2.60;;
43919;SDS011;29578;51.946;5.874;2023-04-06T10:48:45;3.92;;;2.35;;
43919;SDS011;29578;51.946;5.874;2023-04-06T10:51:12;4.18;;;2.58;;
43919;SDS011;29578;51.946;5.874;2023-04-06T10:53:41;4.25;;;2.63;;
43919;SDS011;29578;51.946;5.874;2023-04-06T10:56:09;4.35;;;2.33;;
43919;SDS011;29578;51.946;5.874;2023-04-06T10:58:37;4.38;;;2.22;;
43919;SDS011;29578;51.946;5.874;2023-04-06T11:01:03;4.30;;;2.47;;
43919;SDS011;29578;51.946;5.874;2023-04-06T11:03:28;4.88;;;2.88;;
43919;SDS011;29578;51.946;5.874;2023-04-06T11:05:54;4.60;;;2.60;;
43919;SDS011;29578;51.946;5.874;2023-04-06T11:08:22;4.00;;;2.47;;
43919;SDS011;29578;51.946;5.874;2023-04-06T11:10:49;4.50;;;2.58;;
43919;SDS011;29578;51.946;5.874;2023-04-06T11:13:15;4.82;;;3.10;;
43919;SDS011;29578;51.946;5.874;2023-04-06T11:15:42;5.00;;;2.78;;
43919;SDS011;29578;51.946;5.874;2023-04-06T11:18:07;4.90;;;2.65;;
43919;SDS011;29578;51.946;5.874;2023-04-06T11:20:33;3.97;;;2.75;;
43919;SDS011;29578;51.946;5.874;2023-04-06T11:22:59;5.57;;;3.30;;
43919;SDS011;29578;51.946;5.874;2023-04-06T11:25:25;5.20;;;3.17;;
43919;SDS011;29578;51.946;5.874;2023-04-06T11:27:52;4.82;;;3.03;;
43919;SDS011;29578;51.946;5.874;2023-04-06T11:30:18;4.03;;;2.55;;
43919;SDS011;29578;51.946;5.874;2023-04-06T11:32:44;4.50;;;2.70;;
43919;SDS011;29578;51.946;5.874;2023-04-06T11:35:28;4.28;;;2.70;;
43919;SDS011;29578;51.946;5.874;2023-04-06T11:37:57;4.97;;;2.80;;
43919;SDS011;29578;51.946;5.874;2023-04-06T11:40:23;5.13;;;2.88;;
43919;SDS011;29578;51.946;5.874;2023-04-06T11:42:57;4.80;;;2.80;;
43919;SDS011;29578;51.946;5.874;2023-04-06T11:45:23;3.58;;;2.42;;
43919;SDS011;29578;51.946;5.874;2023-04-06T11:50:31;3.58;;;2.03;;
43919;SDS011;29578;51.946;5.874;2023-04-06T11:52:59;4.10;;;2.40;;
43919;SDS011;29578;51.946;5.874;2023-04-06T11:55:26;3.83;;;2.33;;
43919;SDS011;29578;51.946;5.874;2023-04-06T11:57:52;5.55;;;2.80;;
43919;SDS011;29578;51.946;5.874;2023-04-06T12:00:18;5.65;;;2.60;;
43919;SDS011;29578;51.946;5.874;2023-04-06T12:02:45;3.80;;;2.03;;
43919;SDS011;29578;51.946;5.874;2023-04-06T12:05:12;3.40;;;2.05;;
43919;SDS011;29578;51.946;5.874;2023-04-06T12:07:38;3.00;;;2.10;;
43919;SDS011;29578;51.946;5.874;2023-04-06T12:10:04;2.53;;;1.70;;
43919;SDS011;29578;51.946;5.874;2023-04-06T12:12:30;3.65;;;2.05;;
43919;SDS011;29578;51.946;5.874;2023-04-06T12:14:56;3.25;;;2.03;;
43919;SDS011;29578;51.946;5.874;2023-04-06T12:17:22;3.25;;;1.77;;
43919;SDS011;29578;51.946;5.874;2023-04-06T12:19:48;3.83;;;1.95;;
43919;SDS011;29578;51.946;5.874;2023-04-06T12:22:14;5.22;;;2.80;;
43919;SDS011;29578;51.946;5.874;2023-04-06T12:24:40;4.43;;;2.60;;
43919;SDS011;29578;51.946;5.874;2023-04-06T12:27:06;5.95;;;2.53;;
43919;SDS011;29578;51.946;5.874;2023-04-06T12:29:31;3.35;;;2.05;;
43919;SDS011;29578;51.946;5.874;2023-04-06T12:31:57;2.85;;;1.80;;
43919;SDS011;29578;51.946;5.874;2023-04-06T12:34:23;3.05;;;2.00;;
43919;SDS011;29578;51.946;5.874;2023-04-06T12:36:48;2.50;;;1.65;;
43919;SDS011;29578;51.946;5.874;2023-04-06T12:39:15;2.58;;;1.58;;
43919;SDS011;29578;51.946;5.874;2023-04-06T12:41:41;2.00;;;1.33;;
43919;SDS011;29578;51.946;5.874;2023-04-06T12:44:07;2.03;;;1.20;;
43919;SDS011;29578;51.946;5.874;2023-04-06T12:46:33;2.63;;;1.38;;
43919;SDS011;29578;51.946;5.874;2023-04-06T12:48:58;2.38;;;1.38;;
43919;SDS011;29578;51.946;5.874;2023-04-06T12:51:24;1.95;;;1.33;;
43919;SDS011;29578;51.946;5.874;2023-04-06T12:53:53;1.88;;;1.30;;
43919;SDS011;29578;51.946;5.874;2023-04-06T12:56:18;1.90;;;1.20;;
43919;SDS011;29578;51.946;5.874;2023-04-06T12:58:46;1.80;;;1.30;;
43919;SDS011;29578;51.946;5.874;2023-04-06T13:01:12;3.13;;;1.35;;
43919;SDS011;29578;51.946;5.874;2023-04-06T13:03:38;2.40;;;1.45;;
43919;SDS011;29578;51.946;5.874;2023-04-06T13:06:04;1.85;;;1.20;;
43919;SDS011;29578;51.946;5.874;2023-04-06T13:08:30;2.05;;;1.35;;
43919;SDS011;29578;51.946;5.874;2023-04-06T13:10:56;1.75;;;1.10;;
43919;SDS011;29578;51.946;5.874;2023-04-06T13:13:23;2.15;;;1.02;;
43919;SDS011;29578;51.946;5.874;2023-04-06T13:15:50;2.33;;;1.30;;
43919;SDS011;29578;51.946;5.874;2023-04-06T13:18:16;1.85;;;1.25;;
43919;SDS011;29578;51.946;5.874;2023-04-06T13:20:42;2.45;;;1.55;;
43919;SDS011;29578;51.946;5.874;2023-04-06T13:23:08;1.75;;;1.30;;
43919;SDS011;29578;51.946;5.874;2023-04-06T13:25:33;2.80;;;1.35;;
43919;SDS011;29578;51.946;5.874;2023-04-06T13:28:00;2.40;;;1.48;;
43919;SDS011;29578;51.946;5.874;2023-04-06T13:30:25;1.55;;;1.08;;
43919;SDS011;29578;51.946;5.874;2023-04-06T13:32:51;1.90;;;1.30;;
43919;SDS011;29578;51.946;5.874;2023-04-06T13:35:17;2.42;;;1.33;;
43919;SDS011;29578;51.946;5.874;2023-04-06T13:37:43;2.28;;;1.10;;
43919;SDS011;29578;51.946;5.874;2023-04-06T13:40:09;2.55;;;1.25;;
43919;SDS011;29578;51.946;5.874;2023-04-06T13:42:35;1.48;;;1.02;;
43919;SDS011;29578;51.946;5.874;2023-04-06T13:45:03;1.50;;;1.00;;
43919;SDS011;29578;51.946;5.874;2023-04-06T13:47:29;1.88;;;1.10;;
43919;SDS011;29578;51.946;5.874;2023-04-06T13:49:55;1.42;;;1.00;;
43919;SDS011;29578;51.946;5.874;2023-04-06T13:52:21;1.65;;;1.02;;
43919;SDS011;29578;51.946;5.874;2023-04-06T13:54:46;1.67;;;1.00;;
43919;SDS011;29578;51.946;5.874;2023-04-06T13:57:14;1.75;;;1.15;;
43919;SDS011;29578;51.946;5.874;2023-04-06T13:59:39;1.88;;;1.30;;
43919;SDS011;29578;51.946;5.874;2023-04-06T14:02:06;1.80;;;1.20;;
43919;SDS011;29578;51.946;5.874;2023-04-06T14:04:33;1.67;;;1.25;;
43919;SDS011;29578;51.946;5.874;2023-04-06T14:07:00;1.60;;;1.17;;
43919;SDS011;29578;51.946;5.874;2023-04-06T14:09:26;2.45;;;1.23;;
43919;SDS011;29578;51.946;5.874;2023-04-06T14:11:53;1.50;;;1.10;;
43919;SDS011;29578;51.946;5.874;2023-04-06T14:14:19;1.45;;;1.10;;
43919;SDS011;29578;51.946;5.874;2023-04-06T14:16:45;1.98;;;1.38;;
43919;SDS011;29578;51.946;5.874;2023-04-06T14:19:12;1.27;;;0.98;;
43919;SDS011;29578;51.946;5.874;2023-04-06T14:21:40;1.95;;;1.27;;
43919;SDS011;29578;51.946;5.874;2023-04-06T14:24:07;1.55;;;0.98;;
43919;SDS011;29578;51.946;5.874;2023-04-06T14:26:34;1.27;;;0.93;;
43919;SDS011;29578;51.946;5.874;2023-04-06T14:29:00;1.10;;;0.80;;
43919;SDS011;29578;51.946;5.874;2023-04-06T14:31:26;0.95;;;0.80;;
43919;SDS011;29578;51.946;5.874;2023-04-06T14:33:52;0.98;;;0.88;;
43919;SDS011;29578;51.946;5.874;2023-04-06T14:36:18;1.08;;;0.70;;
43919;SDS011;29578;51.946;5.874;2023-04-06T14:38:43;1.10;;;0.70;;
43919;SDS011;29578;51.946;5.874;2023-04-06T14:41:19;1.08;;;0.98;;
43919;SDS011;29578;51.946;5.874;2023-04-06T14:43:46;1.67;;;1.10;;
43919;SDS011;29578;51.946;5.874;2023-04-06T14:46:12;1.10;;;0.88;;
43919;SDS011;29578;51.946;5.874;2023-04-06T14:48:38;1.30;;;1.00;;